createdAt,value
2023-03-07T00:00:56.894Z,9.40
2023-03-07T00:03:24.101Z,9.47
2023-03-07T00:06:00.433Z,10.20
2023-03-07T00:08:27.595Z,9.13
2023-03-07T00:10:55.122Z,9.43
2023-03-07T00:13:22.321Z,9.30
2023-03-07T00:15:49.926Z,8.87
2023-03-07T00:18:17.134Z,9.40
2023-03-07T00:20:45.145Z,9.87
2023-03-07T00:23:12.626Z,9.97
2023-03-07T00:25:39.789Z,9.53
2023-03-07T00:28:07.964Z,10.23
2023-03-07T00:30:35.102Z,9.60
2023-03-07T00:33:02.299Z,9.30
2023-03-07T00:35:29.471Z,10.10
2023-03-07T00:37:56.641Z,9.80
2023-03-07T00:40:25.244Z,9.97
2023-03-07T00:42:52.470Z,10.20
2023-03-07T00:45:19.617Z,9.87
2023-03-07T00:47:47.145Z,10.70
2023-03-07T00:50:14.256Z,9.77
2023-03-07T00:52:41.466Z,9.77
2023-03-07T00:55:08.911Z,9.13
2023-03-07T00:57:36.014Z,9.00
2023-03-07T01:00:03.323Z,9.00
2023-03-07T01:02:30.502Z,8.73
2023-03-07T01:04:57.707Z,8.73
2023-03-07T01:07:24.877Z,8.83
2023-03-07T01:09:53.243Z,8.70
2023-03-07T01:12:20.423Z,7.73
2023-03-07T01:14:50.590Z,8.27
2023-03-07T01:17:17.721Z,8.47
2023-03-07T01:19:44.888Z,7.87
2023-03-07T01:22:12.012Z,7.70
2023-03-07T01:24:39.922Z,7.37
2023-03-07T01:27:07.048Z,7.40
2023-03-07T01:29:34.276Z,7.43
2023-03-07T01:32:01.739Z,7.40
2023-03-07T01:34:29.010Z,8.30
2023-03-07T01:36:56.219Z,7.60
2023-03-07T01:39:23.426Z,7.40
2023-03-07T01:41:50.752Z,7.43
2023-03-07T01:44:22.473Z,7.17
2023-03-07T01:46:53.497Z,7.77
2023-03-07T01:49:33.006Z,8.20
2023-03-07T01:52:03.244Z,7.30
2023-03-07T01:54:31.512Z,7.77
2023-03-07T01:56:59.252Z,7.03
2023-03-07T01:59:30.471Z,6.70
2023-03-07T02:02:00.928Z,7.27
2023-03-07T02:04:37.609Z,7.67
2023-03-07T02:07:04.893Z,7.73
2023-03-07T02:09:33.203Z,7.67
2023-03-07T02:12:01.710Z,8.03
2023-03-07T02:14:28.912Z,7.33
2023-03-07T02:16:56.310Z,7.57
2023-03-07T02:19:32.130Z,7.30
2023-03-07T02:22:11.627Z,8.07
2023-03-07T02:24:44.414Z,7.47
2023-03-07T02:27:11.611Z,7.30
2023-03-07T02:29:39.685Z,7.90
2023-03-07T02:32:07.684Z,7.80
2023-03-07T02:34:34.849Z,7.70
2023-03-07T02:37:06.299Z,7.50
2023-03-07T02:39:33.664Z,7.40
2023-03-07T02:42:04.272Z,6.97
2023-03-07T02:44:33.352Z,7.40
2023-03-07T02:47:00.655Z,7.87
2023-03-07T02:49:27.807Z,8.10
2023-03-07T02:51:58.215Z,7.33
2023-03-07T02:54:26.090Z,8.07
2023-03-07T02:56:54.702Z,7.30
2023-03-07T02:59:22.165Z,8.07
2023-03-07T03:01:49.388Z,7.77
2023-03-07T03:04:16.612Z,7.23
2023-03-07T03:06:46.565Z,7.43
2023-03-07T03:09:13.714Z,7.80
2023-03-07T03:11:40.942Z,7.80
2023-03-07T03:14:08.424Z,7.60
2023-03-07T03:16:35.551Z,7.60
2023-03-07T03:19:03.309Z,8.50
2023-03-07T03:21:30.489Z,8.17
2023-03-07T03:23:57.744Z,7.33
2023-03-07T03:26:25.892Z,7.43
2023-03-07T03:28:55.057Z,7.27
2023-03-07T03:31:22.228Z,7.47
2023-03-07T03:33:52.058Z,7.20
2023-03-07T03:36:19.319Z,7.07
2023-03-07T03:38:46.904Z,6.70
2023-03-07T03:41:18.601Z,6.97
2023-03-07T03:43:46.062Z,7.13
2023-03-07T03:46:13.423Z,11.67
2023-03-07T03:48:41.642Z,13.27
2023-03-07T03:51:10.324Z,7.80
2023-03-07T03:53:38.579Z,7.70
2023-03-07T03:56:07.263Z,8.23
2023-03-07T03:58:35.102Z,7.93
2023-03-07T04:01:07.815Z,9.10
2023-03-07T04:03:36.113Z,8.67
2023-03-07T04:06:04.673Z,7.47
2023-03-07T04:08:32.113Z,7.67
2023-03-07T04:10:59.441Z,8.83
2023-03-07T04:13:26.740Z,7.37
2023-03-07T04:15:57.272Z,7.03
2023-03-07T04:18:24.840Z,7.00
2023-03-07T04:20:52.768Z,7.90
2023-03-07T04:23:24.017Z,7.47
2023-03-07T04:25:52.707Z,7.30
2023-03-07T04:28:20.294Z,7.70
2023-03-07T04:30:49.731Z,7.13
2023-03-07T04:33:17.559Z,6.93
2023-03-07T04:35:46.077Z,7.10
2023-03-07T04:38:13.899Z,7.80
2023-03-07T04:40:41.135Z,6.90
2023-03-07T04:43:08.326Z,6.93
2023-03-07T04:45:37.353Z,7.37
2023-03-07T04:48:04.936Z,7.10
2023-03-07T04:50:32.439Z,7.53
2023-03-07T04:52:59.831Z,7.43
2023-03-07T04:55:26.982Z,6.80
2023-03-07T04:57:54.195Z,7.50
2023-03-07T05:00:21.583Z,7.40
2023-03-07T05:02:49.765Z,7.37
2023-03-07T05:05:17.800Z,7.30
2023-03-07T05:07:45.084Z,7.10
2023-03-07T05:10:12.443Z,7.27
2023-03-07T05:12:39.712Z,7.30
2023-03-07T05:15:07.268Z,7.33
2023-03-07T05:17:34.726Z,7.23
2023-03-07T05:20:02.710Z,6.67
2023-03-07T05:22:30.009Z,7.33
2023-03-07T05:24:58.730Z,8.20
2023-03-07T05:27:25.970Z,7.87
2023-03-07T05:29:53.181Z,7.10
2023-03-07T05:32:20.404Z,6.97
2023-03-07T05:34:48.239Z,7.30
2023-03-07T05:37:15.517Z,7.20
2023-03-07T05:39:42.693Z,7.00
2023-03-07T05:42:09.905Z,6.90
2023-03-07T05:44:37.004Z,7.70
2023-03-07T05:47:04.235Z,7.53
2023-03-07T05:49:31.383Z,7.50
2023-03-07T05:51:58.535Z,7.30
2023-03-07T05:54:25.936Z,7.13
2023-03-07T05:56:53.389Z,7.27
2023-03-07T05:59:20.567Z,7.23
2023-03-07T06:01:47.803Z,7.50
2023-03-07T06:04:14.988Z,7.57
2023-03-07T06:06:42.149Z,7.27
2023-03-07T06:09:09.336Z,7.43
2023-03-07T06:11:36.599Z,7.17
2023-03-07T06:14:03.935Z,7.40
2023-03-07T06:16:31.063Z,7.77
2023-03-07T06:18:58.283Z,6.67
2023-03-07T06:21:25.495Z,8.27
2023-03-07T06:23:52.890Z,7.83
2023-03-07T06:26:20.152Z,7.07
2023-03-07T06:28:47.393Z,7.80
2023-03-07T06:31:16.013Z,8.17
2023-03-07T06:33:47.708Z,8.40
2023-03-07T06:36:16.290Z,8.87
2023-03-07T06:38:43.421Z,7.70
2023-03-07T06:41:10.619Z,7.40
2023-03-07T06:43:38.125Z,10.10
2023-03-07T06:46:05.829Z,8.40
2023-03-07T06:48:34.822Z,9.03
2023-03-07T06:51:06.985Z,8.60
2023-03-07T06:53:34.329Z,8.50
2023-03-07T06:56:01.568Z,8.83
2023-03-07T06:58:28.918Z,8.13
2023-03-07T07:00:56.131Z,8.60
2023-03-07T07:03:23.351Z,8.23
2023-03-07T07:05:50.873Z,7.80
2023-03-07T07:08:18.109Z,7.67
2023-03-07T07:10:45.255Z,8.10
2023-03-07T07:13:12.684Z,7.57
2023-03-07T07:15:39.890Z,8.30
2023-03-07T07:18:07.025Z,7.87
2023-03-07T07:20:34.241Z,7.43
2023-03-07T07:23:01.657Z,7.80
2023-03-07T07:25:28.756Z,8.70
2023-03-07T07:27:56.193Z,8.37
2023-03-07T07:30:24.078Z,7.10
2023-03-07T07:32:51.344Z,7.80
2023-03-07T07:35:18.623Z,7.57
2023-03-07T07:37:45.778Z,7.87
2023-03-07T07:40:13.757Z,6.87
2023-03-07T07:42:41.120Z,8.13
2023-03-07T07:45:08.596Z,8.20
2023-03-07T07:47:35.838Z,8.03
2023-03-07T07:50:03.380Z,7.57
2023-03-07T07:52:30.680Z,8.27
2023-03-07T07:54:57.865Z,7.70
2023-03-07T07:57:25.407Z,7.60
2023-03-07T07:59:53.231Z,7.37
2023-03-07T08:02:23.575Z,7.80
2023-03-07T08:04:50.740Z,7.43
2023-03-07T08:07:17.857Z,7.43
2023-03-07T08:09:45.102Z,7.60
2023-03-07T08:12:12.922Z,7.60
2023-03-07T08:14:40.761Z,7.97
2023-03-07T08:17:07.952Z,8.50
2023-03-07T08:19:35.272Z,7.30
2023-03-07T08:22:03.197Z,7.77
2023-03-07T08:24:40.567Z,7.77
2023-03-07T08:27:08.197Z,8.17
2023-03-07T08:29:35.453Z,7.63
2023-03-07T08:32:02.661Z,8.07
2023-03-07T08:34:29.916Z,7.87
2023-03-07T08:36:57.054Z,7.37
2023-03-07T08:39:24.418Z,7.93
2023-03-07T08:41:51.874Z,7.50
2023-03-07T08:44:22.178Z,7.27
2023-03-07T08:46:49.368Z,7.27
2023-03-07T08:49:16.623Z,7.47
2023-03-07T08:51:44.760Z,7.83
2023-03-07T08:54:11.924Z,7.57
2023-03-07T08:56:39.148Z,7.73
2023-03-07T08:59:06.584Z,7.50
2023-03-07T09:01:33.727Z,7.50
2023-03-07T09:04:00.836Z,7.20
2023-03-07T09:06:27.976Z,7.30
2023-03-07T09:08:55.211Z,6.87
2023-03-07T09:11:22.422Z,8.03
2023-03-07T09:13:52.689Z,7.10
2023-03-07T09:16:20.710Z,7.77
2023-03-07T09:18:48.332Z,7.60
2023-03-07T09:21:15.535Z,7.77
2023-03-07T09:23:45.611Z,7.37
2023-03-07T09:26:13.227Z,7.73
2023-03-07T09:28:40.608Z,7.90
2023-03-07T09:31:11.942Z,8.03
2023-03-07T09:33:39.620Z,7.07
2023-03-07T09:36:08.624Z,8.33
2023-03-07T09:38:36.399Z,7.30
2023-03-07T09:41:10.944Z,7.33
2023-03-07T09:43:59.262Z,7.20
2023-03-07T09:46:29.517Z,7.90
2023-03-07T09:48:56.683Z,6.87
2023-03-07T09:51:31.892Z,7.10
2023-03-07T09:54:01.398Z,6.57
2023-03-07T09:56:31.341Z,7.47
2023-03-07T09:59:13.725Z,7.47
2023-03-07T10:01:47.840Z,7.60
2023-03-07T10:04:18.356Z,6.27
2023-03-07T10:06:46.917Z,7.47
2023-03-07T10:09:16.949Z,7.83
2023-03-07T10:12:07.569Z,7.63
2023-03-07T10:14:37.742Z,7.07
2023-03-07T10:17:13.568Z,6.73
2023-03-07T10:20:00.581Z,6.67
2023-03-07T10:22:28.086Z,6.67
2023-03-07T10:25:10.524Z,7.20
2023-03-07T10:27:39.373Z,6.63
2023-03-07T10:30:15.785Z,6.83
2023-03-07T10:32:53.267Z,6.37
2023-03-07T10:35:22.418Z,6.83
2023-03-07T10:37:51.459Z,6.40
2023-03-07T10:40:32.724Z,6.73
2023-03-07T10:43:00.230Z,6.60
2023-03-07T10:45:31.978Z,7.30
2023-03-07T10:48:17.121Z,7.17
2023-03-07T10:50:44.300Z,6.93
2023-03-07T10:53:22.703Z,6.33
2023-03-07T10:55:50.759Z,7.27
2023-03-07T10:58:19.695Z,6.70
2023-03-07T11:00:48.955Z,6.47
2023-03-07T11:03:24.443Z,6.57
2023-03-07T11:05:51.807Z,6.57
2023-03-07T11:08:26.077Z,6.67
2023-03-07T11:10:53.469Z,5.73
2023-03-07T11:13:22.473Z,6.20
2023-03-07T11:15:49.672Z,6.50
2023-03-07T11:18:27.313Z,5.87
2023-03-07T11:20:57.253Z,7.10
2023-03-07T11:23:30.893Z,6.40
2023-03-07T11:26:00.795Z,6.77
2023-03-07T11:28:31.047Z,6.37
2023-03-07T11:31:01.441Z,6.90
2023-03-07T11:33:58.669Z,7.23
2023-03-07T11:36:29.864Z,10.30
2023-03-07T11:39:06.236Z,8.10
2023-03-07T11:41:41.574Z,7.03
2023-03-07T11:44:27.498Z,8.10
2023-03-07T11:47:19.603Z,8.80
2023-03-07T11:49:58.592Z,7.80
2023-03-07T11:52:44.412Z,6.57
2023-03-07T11:55:17.979Z,6.30
2023-03-07T11:57:48.276Z,7.07
2023-03-07T12:00:16.112Z,6.83
2023-03-07T12:03:02.513Z,6.83
2023-03-07T12:05:29.705Z,6.47
2023-03-07T12:08:06.293Z,6.40
2023-03-07T12:10:39.952Z,6.80
2023-03-07T12:13:10.239Z,6.60
2023-03-07T12:15:40.410Z,7.10
2023-03-07T12:18:22.856Z,6.10
2023-03-07T12:21:04.436Z,6.87
2023-03-07T12:23:39.103Z,7.33
2023-03-07T12:26:26.512Z,6.83
2023-03-07T12:29:02.387Z,6.60
2023-03-07T12:31:33.130Z,6.90
2023-03-07T12:34:20.805Z,6.53
2023-03-07T12:36:54.034Z,7.20
2023-03-07T12:39:21.268Z,7.63
2023-03-07T12:41:54.425Z,7.20
2023-03-07T12:44:30.859Z,6.43
2023-03-07T12:47:01.022Z,6.70
2023-03-07T12:49:35.792Z,7.27
2023-03-07T12:52:15.253Z,7.53
2023-03-07T12:54:45.127Z,6.13
2023-03-07T12:57:19.591Z,6.30
2023-03-07T12:59:46.874Z,7.40
2023-03-07T13:02:46.651Z,8.30
2023-03-07T13:05:18.399Z,8.43
2023-03-07T13:07:46.368Z,8.03
2023-03-07T13:10:17.434Z,7.23
2023-03-07T13:12:48.118Z,7.00
2023-03-07T13:15:18.271Z,7.00
2023-03-07T13:17:45.591Z,7.10
2023-03-07T13:20:15.556Z,6.90
2023-03-07T13:22:43.039Z,7.33
2023-03-07T13:25:36.005Z,7.33
2023-03-07T13:28:03.773Z,7.40
2023-03-07T13:30:31.875Z,7.00
2023-03-07T13:33:03.521Z,7.17
2023-03-07T13:35:33.777Z,7.73
2023-03-07T13:38:03.623Z,6.70
2023-03-07T13:40:37.001Z,7.50
2023-03-07T13:43:08.656Z,7.50
2023-03-07T13:45:38.973Z,7.07
2023-03-07T13:48:11.508Z,7.23
2023-03-07T13:50:39.790Z,7.33
2023-03-07T13:53:10.023Z,6.67
2023-03-07T13:55:47.618Z,7.90
2023-03-07T13:58:27.466Z,7.83
2023-03-07T14:01:05.106Z,6.73
2023-03-07T14:03:39.870Z,7.63
2023-03-07T14:06:12.312Z,6.93
2023-03-07T14:08:40.050Z,7.03
2023-03-07T14:11:08.713Z,7.97
2023-03-07T14:13:49.413Z,8.60
2023-03-07T14:16:23.116Z,8.03
2023-03-07T14:18:53.527Z,7.47
2023-03-07T14:21:39.419Z,7.03
2023-03-07T14:24:13.114Z,6.67
2023-03-07T14:26:42.716Z,6.83
2023-03-07T14:29:14.183Z,7.53
2023-03-07T14:31:42.544Z,7.37
2023-03-07T14:34:28.032Z,6.93
2023-03-07T14:36:56.540Z,7.50
2023-03-07T14:39:24.619Z,6.93
2023-03-07T14:42:04.051Z,6.70
2023-03-07T14:44:50.219Z,7.17
2023-03-07T14:47:26.896Z,8.63
2023-03-07T14:50:06.179Z,6.80
2023-03-07T14:52:33.982Z,14.53
2023-03-07T14:55:03.824Z,6.47
2023-03-07T14:57:46.180Z,7.33
2023-03-07T15:00:13.723Z,7.03
2023-03-07T15:02:54.477Z,6.77
2023-03-07T15:05:26.764Z,5.97
2023-03-07T15:07:54.987Z,6.53
2023-03-07T15:10:27.652Z,6.77
2023-03-07T15:12:56.005Z,5.97
2023-03-07T15:15:31.165Z,6.43
2023-03-07T15:18:00.868Z,6.23
2023-03-07T15:20:28.636Z,6.10
2023-03-07T15:23:07.497Z,6.70
2023-03-07T15:25:39.121Z,5.80
2023-03-07T15:28:08.318Z,5.27
2023-03-07T15:30:37.053Z,5.87
2023-03-07T15:33:05.806Z,7.53
2023-03-07T15:35:33.110Z,6.13
2023-03-07T15:38:07.791Z,5.17
2023-03-07T15:40:35.941Z,5.23
2023-03-07T15:43:04.503Z,5.37
2023-03-07T15:45:39.675Z,5.33
2023-03-07T15:48:15.768Z,5.13
2023-03-07T15:50:42.937Z,10.83
2023-03-07T15:53:23.367Z,5.20
2023-03-07T15:55:57.685Z,5.77
2023-03-07T15:58:25.058Z,6.00
2023-03-07T16:01:04.462Z,5.00
2023-03-07T16:03:31.842Z,4.53
2023-03-07T16:06:00.116Z,5.53
2023-03-07T16:08:27.673Z,4.87
2023-03-07T16:11:01.054Z,10.80
2023-03-07T16:13:40.771Z,4.97
2023-03-07T16:16:16.299Z,6.03
2023-03-07T16:18:43.902Z,6.00
2023-03-07T16:21:13.710Z,5.70
2023-03-07T16:23:41.076Z,5.10
2023-03-07T16:26:08.427Z,4.63
2023-03-07T16:28:35.790Z,4.60
2023-03-07T16:31:02.973Z,4.87
2023-03-07T16:33:30.147Z,5.23
2023-03-07T16:35:57.360Z,5.10
2023-03-07T16:38:27.239Z,5.10
2023-03-07T16:40:55.204Z,4.53
2023-03-07T16:43:39.206Z,5.13
2023-03-07T16:46:07.410Z,4.90
2023-03-07T16:48:34.892Z,5.10
2023-03-07T16:51:02.211Z,4.90
2023-03-07T16:53:29.738Z,6.03
2023-03-07T16:55:58.341Z,5.03
2023-03-07T16:58:30.134Z,5.07
2023-03-07T17:00:59.996Z,4.37
2023-03-07T17:03:29.871Z,4.40
2023-03-07T17:05:57.142Z,4.73
2023-03-07T17:08:24.295Z,5.10
2023-03-07T17:10:51.505Z,5.30
2023-03-07T17:13:19.130Z,9.43
2023-03-07T17:15:47.149Z,4.90
2023-03-07T17:18:14.506Z,6.10
2023-03-07T17:20:42.127Z,5.10
2023-03-07T17:23:09.289Z,9.07
2023-03-07T17:25:36.508Z,6.03
2023-03-07T17:28:05.320Z,8.67
2023-03-07T17:30:33.169Z,7.80
2023-03-07T17:33:01.150Z,5.50
2023-03-07T17:35:28.610Z,5.10
2023-03-07T17:37:55.806Z,5.50
2023-03-07T17:40:22.991Z,5.57
2023-03-07T17:42:51.337Z,6.40
2023-03-07T17:45:18.963Z,6.10
2023-03-07T17:47:46.140Z,8.63
2023-03-07T17:50:13.429Z,5.97
2023-03-07T17:52:40.921Z,5.80
2023-03-07T17:55:09.641Z,5.37
2023-03-07T17:57:36.933Z,5.63
2023-03-07T18:00:08.711Z,6.07
2023-03-07T18:02:36.109Z,5.87
2023-03-07T18:05:03.282Z,5.70
2023-03-07T18:07:30.492Z,5.60
2023-03-07T18:10:07.448Z,5.97
2023-03-07T18:12:35.826Z,5.97
2023-03-07T18:15:04.750Z,5.80
2023-03-07T18:17:46.593Z,6.13
2023-03-07T18:20:14.909Z,6.63
2023-03-07T18:22:42.305Z,6.37
2023-03-07T18:25:11.228Z,6.73
2023-03-07T18:27:38.347Z,6.53
2023-03-07T18:30:05.707Z,6.53
2023-03-07T18:32:34.416Z,6.27
2023-03-07T18:35:01.771Z,6.80
2023-03-07T18:37:29.044Z,7.00
2023-03-07T18:39:56.305Z,6.40
2023-03-07T18:42:26.818Z,6.70
2023-03-07T18:44:54.543Z,7.17
2023-03-07T18:47:22.089Z,8.40
2023-03-07T18:49:51.266Z,9.97
2023-03-07T18:52:18.984Z,18.93
2023-03-07T18:54:46.237Z,17.40
2023-03-07T18:57:13.346Z,10.63
2023-03-07T18:59:40.560Z,9.63
2023-03-07T19:02:07.985Z,16.23
2023-03-07T19:04:36.079Z,20.20
2023-03-07T19:07:04.004Z,16.90
2023-03-07T19:09:31.630Z,12.00
2023-03-07T19:11:59.156Z,11.00
2023-03-07T19:14:30.009Z,8.37
2023-03-07T19:16:58.041Z,8.47
2023-03-07T19:19:25.886Z,7.90
2023-03-07T19:21:53.142Z,7.13
2023-03-07T19:24:20.487Z,6.87
2023-03-07T19:26:49.114Z,6.80
2023-03-07T19:29:16.310Z,6.17
2023-03-07T19:31:44.448Z,6.47
2023-03-07T19:34:12.086Z,6.03
2023-03-07T19:36:44.290Z,6.33
2023-03-07T19:39:20.693Z,6.20
2023-03-07T19:41:48.280Z,6.23
2023-03-07T19:44:26.767Z,5.83
2023-03-07T19:46:54.041Z,5.40
2023-03-07T19:49:24.176Z,5.80
2023-03-07T19:51:51.590Z,5.40
2023-03-07T19:54:20.528Z,6.70
2023-03-07T19:56:47.937Z,5.60
2023-03-07T19:59:16.131Z,5.30
2023-03-07T20:01:43.702Z,18.27
2023-03-07T20:04:14.788Z,6.37
2023-03-07T20:06:42.685Z,6.13
2023-03-07T20:09:14.373Z,6.23
2023-03-07T20:11:43.530Z,6.03
2023-03-07T20:14:12.338Z,5.90
2023-03-07T20:16:40.290Z,5.30
2023-03-07T20:19:09.718Z,5.50
2023-03-07T20:21:37.871Z,5.40
2023-03-07T20:24:05.940Z,5.57
2023-03-07T20:26:38.269Z,5.60
2023-03-07T20:29:06.810Z,5.67
2023-03-07T20:31:38.981Z,5.53
2023-03-07T20:34:06.389Z,5.77
2023-03-07T20:36:34.877Z,5.80
2023-03-07T20:39:05.030Z,5.60
2023-03-07T20:41:33.196Z,5.33
2023-03-07T20:44:05.308Z,5.87
2023-03-07T20:46:33.143Z,5.17
2023-03-07T20:49:01.572Z,6.00
2023-03-07T20:51:30.236Z,5.47
2023-03-07T20:53:59.373Z,5.27
2023-03-07T20:56:27.806Z,6.03
2023-03-07T20:58:55.614Z,6.07
2023-03-07T21:01:23.618Z,5.50
2023-03-07T21:03:51.666Z,8.27
2023-03-07T21:06:19.457Z,21.90
2023-03-07T21:08:50.066Z,23.37
2023-03-07T21:11:19.614Z,8.27
2023-03-07T21:13:49.407Z,9.77
2023-03-07T21:16:18.879Z,10.23
2023-03-07T21:18:46.780Z,7.30
2023-03-07T21:21:18.288Z,6.07
2023-03-07T21:23:47.110Z,6.00
2023-03-07T21:26:16.474Z,6.30
2023-03-07T21:28:46.306Z,5.70
2023-03-07T21:31:13.808Z,5.83
2023-03-07T21:33:42.438Z,6.07
2023-03-07T21:36:11.157Z,6.03
2023-03-07T21:38:39.800Z,6.37
2023-03-07T21:41:07.559Z,5.80
2023-03-07T21:43:34.940Z,7.67
2023-03-07T21:46:06.171Z,7.47
2023-03-07T21:48:33.884Z,7.67
2023-03-07T21:51:01.408Z,8.07
2023-03-07T21:53:28.881Z,11.33
2023-03-07T21:56:04.133Z,7.00
2023-03-07T21:58:31.726Z,6.00
2023-03-07T22:00:59.330Z,5.90
2023-03-07T22:03:27.279Z,7.17
2023-03-07T22:05:56.293Z,6.57
2023-03-07T22:08:24.688Z,7.17
2023-03-07T22:11:03.294Z,6.70
2023-03-07T22:13:34.331Z,6.77
2023-03-07T22:16:03.348Z,6.77
2023-03-07T22:18:31.051Z,6.50
2023-03-07T22:20:58.207Z,6.20
2023-03-07T22:23:28.649Z,6.97
2023-03-07T22:25:55.945Z,7.40
2023-03-07T22:28:23.216Z,6.77
2023-03-07T22:30:50.640Z,6.67
2023-03-07T22:33:18.507Z,6.43
2023-03-07T22:35:45.782Z,6.80
2023-03-07T22:38:15.788Z,5.97
2023-03-07T22:40:43.934Z,6.10
2023-03-07T22:43:11.200Z,6.27
2023-03-07T22:45:38.355Z,5.90
2023-03-07T22:48:05.627Z,6.57
2023-03-07T22:50:32.867Z,6.10
2023-03-07T22:53:01.342Z,6.23
2023-03-07T22:55:28.471Z,6.57
2023-03-07T22:57:55.772Z,7.00
2023-03-07T23:00:23.032Z,6.60
2023-03-07T23:02:50.166Z,6.47
2023-03-07T23:05:17.527Z,6.97
2023-03-07T23:07:47.168Z,6.43
2023-03-07T23:10:15.617Z,7.07
2023-03-07T23:12:42.784Z,6.30
2023-03-07T23:15:10.058Z,7.10
2023-03-07T23:17:37.616Z,6.73
2023-03-07T23:20:05.119Z,6.77
2023-03-07T23:22:32.225Z,6.87
2023-03-07T23:24:59.378Z,6.43
2023-03-07T23:27:27.600Z,6.80
2023-03-07T23:29:54.857Z,7.23
2023-03-07T23:32:22.213Z,7.33
2023-03-07T23:34:49.482Z,7.03
2023-03-07T23:37:17.139Z,6.93
2023-03-07T23:39:44.410Z,6.53
2023-03-07T23:42:14.719Z,6.37
2023-03-07T23:44:42.568Z,6.43
2023-03-07T23:47:10.205Z,6.77
2023-03-07T23:49:37.412Z,6.27
2023-03-07T23:52:04.640Z,6.90
2023-03-07T23:54:31.812Z,6.43
2023-03-07T23:56:58.971Z,6.63
2023-03-07T23:59:26.147Z,7.20
